sensor_id;sensor_type;location;lat;lon;timestamp;P1;durP1;ratioP1;P2;durP2;ratioP2
16385;SDS011;8302;51.154;4.456;2023-02-01T00:01:20;3.35;;;1.52;;
16385;SDS011;8302;51.154;4.456;2023-02-01T00:03:48;2.90;;;0.98;;
16385;SDS011;8302;51.154;4.456;2023-02-01T00:06:17;6.07;;;1.52;;
16385;SDS011;8302;51.154;4.456;2023-02-01T00:08:45;6.07;;;1.67;;
16385;SDS011;8302;51.154;4.456;2023-02-01T00:11:13;1.83;;;0.90;;
16385;SDS011;8302;51.154;4.456;2023-02-01T00:13:41;4.68;;;1.65;;
16385;SDS011;8302;51.154;4.456;2023-02-01T00:16:09;4.13;;;1.42;;
16385;SDS011;8302;51.154;4.456;2023-02-01T00:18:39;2.33;;;1.38;;
16385;SDS011;8302;51.154;4.456;2023-02-01T00:21:07;4.07;;;1.40;;
16385;SDS011;8302;51.154;4.456;2023-02-01T00:23:35;1.15;;;0.90;;
16385;SDS011;8302;51.154;4.456;2023-02-01T00:26:04;2.08;;;1.17;;
16385;SDS011;8302;51.154;4.456;2023-02-01T00:28:32;2.17;;;1.58;;
16385;SDS011;8302;51.154;4.456;2023-02-01T00:31:02;1.55;;;0.90;;
16385;SDS011;8302;51.154;4.456;2023-02-01T00:33:30;3.70;;;1.35;;
16385;SDS011;8302;51.154;4.456;2023-02-01T00:36:05;0.82;;;0.82;;
16385;SDS011;8302;51.154;4.456;2023-02-01T00:38:33;2.97;;;1.45;;
16385;SDS011;8302;51.154;4.456;2023-02-01T00:41:02;1.80;;;0.90;;
16385;SDS011;8302;51.154;4.456;2023-02-01T00:43:32;2.55;;;1.38;;
16385;SDS011;8302;51.154;4.456;2023-02-01T00:46:01;6.28;;;0.88;;
16385;SDS011;8302;51.154;4.456;2023-02-01T00:48:28;0.73;;;0.73;;
16385;SDS011;8302;51.154;4.456;2023-02-01T00:50:59;2.05;;;1.35;;
16385;SDS011;8302;51.154;4.456;2023-02-01T00:53:30;3.88;;;1.10;;
16385;SDS011;8302;51.154;4.456;2023-02-01T00:55:59;2.03;;;1.05;;
16385;SDS011;8302;51.154;4.456;2023-02-01T00:58:27;1.83;;;0.57;;
16385;SDS011;8302;51.154;4.456;2023-02-01T01:01:02;3.03;;;0.93;;
16385;SDS011;8302;51.154;4.456;2023-02-01T01:03:30;1.27;;;1.10;;
16385;SDS011;8302;51.154;4.456;2023-02-01T01:05:59;1.77;;;1.13;;
16385;SDS011;8302;51.154;4.456;2023-02-01T01:08:30;1.00;;;0.98;;
16385;SDS011;8302;51.154;4.456;2023-02-01T01:11:00;2.70;;;1.42;;
16385;SDS011;8302;51.154;4.456;2023-02-01T01:13:30;5.68;;;1.88;;
16385;SDS011;8302;51.154;4.456;2023-02-01T01:15:59;5.75;;;1.20;;
16385;SDS011;8302;51.154;4.456;2023-02-01T01:18:29;3.47;;;1.17;;
16385;SDS011;8302;51.154;4.456;2023-02-01T01:21:04;1.75;;;1.13;;
16385;SDS011;8302;51.154;4.456;2023-02-01T01:23:33;3.50;;;1.58;;
16385;SDS011;8302;51.154;4.456;2023-02-01T01:26:04;6.57;;;1.38;;
16385;SDS011;8302;51.154;4.456;2023-02-01T01:28:33;2.25;;;1.25;;
16385;SDS011;8302;51.154;4.456;2023-02-01T01:31:03;4.93;;;1.45;;
16385;SDS011;8302;51.154;4.456;2023-02-01T01:33:34;1.95;;;0.88;;
16385;SDS011;8302;51.154;4.456;2023-02-01T01:36:01;2.40;;;1.08;;
16385;SDS011;8302;51.154;4.456;2023-02-01T01:38:29;3.67;;;1.75;;
16385;SDS011;8302;51.154;4.456;2023-02-01T01:40:59;1.38;;;1.05;;
16385;SDS011;8302;51.154;4.456;2023-02-01T01:46:10;3.75;;;1.10;;
16385;SDS011;8302;51.154;4.456;2023-02-01T01:48:38;1.77;;;1.45;;
16385;SDS011;8302;51.154;4.456;2023-02-01T01:51:08;2.38;;;1.23;;
16385;SDS011;8302;51.154;4.456;2023-02-01T01:53:37;2.08;;;0.90;;
16385;SDS011;8302;51.154;4.456;2023-02-01T01:56:07;1.13;;;0.93;;
16385;SDS011;8302;51.154;4.456;2023-02-01T01:58:34;1.42;;;0.95;;
16385;SDS011;8302;51.154;4.456;2023-02-01T02:01:02;3.38;;;1.10;;
16385;SDS011;8302;51.154;4.456;2023-02-01T02:03:32;2.40;;;1.20;;
16385;SDS011;8302;51.154;4.456;2023-02-01T02:06:03;1.38;;;1.10;;
16385;SDS011;8302;51.154;4.456;2023-02-01T02:08:34;1.45;;;1.00;;
16385;SDS011;8302;51.154;4.456;2023-02-01T02:11:09;2.53;;;1.55;;
16385;SDS011;8302;51.154;4.456;2023-02-01T02:13:37;2.65;;;1.02;;
16385;SDS011;8302;51.154;4.456;2023-02-01T02:16:18;3.78;;;0.70;;
16385;SDS011;8302;51.154;4.456;2023-02-01T02:18:50;3.13;;;0.98;;
16385;SDS011;8302;51.154;4.456;2023-02-01T02:21:24;1.90;;;1.13;;
16385;SDS011;8302;51.154;4.456;2023-02-01T02:29:37;3.78;;;1.25;;
16385;SDS011;8302;51.154;4.456;2023-02-01T02:34:56;1.55;;;1.23;;
16385;SDS011;8302;51.154;4.456;2023-02-01T02:37:30;6.50;;;1.48;;
16385;SDS011;8302;51.154;4.456;2023-02-01T02:40:04;7.22;;;1.10;;
16385;SDS011;8302;51.154;4.456;2023-02-01T02:42:34;3.60;;;1.50;;
16385;SDS011;8302;51.154;4.456;2023-02-01T02:45:30;2.30;;;1.33;;
16385;SDS011;8302;51.154;4.456;2023-02-01T02:48:20;2.92;;;1.13;;
16385;SDS011;8302;51.154;4.456;2023-02-01T02:50:53;2.15;;;1.75;;
16385;SDS011;8302;51.154;4.456;2023-02-01T02:53:47;4.03;;;1.58;;
16385;SDS011;8302;51.154;4.456;2023-02-01T02:56:34;2.58;;;0.98;;
16385;SDS011;8302;51.154;4.456;2023-02-01T02:59:20;3.20;;;1.55;;
16385;SDS011;8302;51.154;4.456;2023-02-01T03:02:06;3.47;;;0.95;;
16385;SDS011;8302;51.154;4.456;2023-02-01T03:04:52;1.27;;;1.10;;
16385;SDS011;8302;51.154;4.456;2023-02-01T03:07:49;2.38;;;1.23;;
16385;SDS011;8302;51.154;4.456;2023-02-01T03:10:22;3.95;;;1.30;;
16385;SDS011;8302;51.154;4.456;2023-02-01T03:12:53;3.78;;;2.03;;
16385;SDS011;8302;51.154;4.456;2023-02-01T03:15:24;1.75;;;1.30;;
16385;SDS011;8302;51.154;4.456;2023-02-01T03:17:54;5.05;;;1.40;;
16385;SDS011;8302;51.154;4.456;2023-02-01T03:20:23;3.72;;;1.50;;
16385;SDS011;8302;51.154;4.456;2023-02-01T03:22:52;2.65;;;1.15;;
16385;SDS011;8302;51.154;4.456;2023-02-01T03:25:22;2.20;;;1.10;;
16385;SDS011;8302;51.154;4.456;2023-02-01T03:27:55;0.75;;;0.63;;
16385;SDS011;8302;51.154;4.456;2023-02-01T03:30:25;3.28;;;1.15;;
16385;SDS011;8302;51.154;4.456;2023-02-01T03:32:55;4.18;;;1.27;;
16385;SDS011;8302;51.154;4.456;2023-02-01T03:35:31;2.97;;;1.58;;
16385;SDS011;8302;51.154;4.456;2023-02-01T03:38:03;2.22;;;1.05;;
16385;SDS011;8302;51.154;4.456;2023-02-01T03:40:36;1.23;;;1.08;;
16385;SDS011;8302;51.154;4.456;2023-02-01T03:43:06;2.53;;;0.90;;
16385;SDS011;8302;51.154;4.456;2023-02-01T03:45:35;0.95;;;0.82;;
16385;SDS011;8302;51.154;4.456;2023-02-01T03:48:07;2.90;;;1.13;;
16385;SDS011;8302;51.154;4.456;2023-02-01T03:50:36;2.97;;;0.80;;
16385;SDS011;8302;51.154;4.456;2023-02-01T03:53:08;2.15;;;1.23;;
16385;SDS011;8302;51.154;4.456;2023-02-01T03:55:37;2.50;;;0.75;;
16385;SDS011;8302;51.154;4.456;2023-02-01T03:58:06;1.80;;;1.05;;
16385;SDS011;8302;51.154;4.456;2023-02-01T04:00:35;4.75;;;2.00;;
16385;SDS011;8302;51.154;4.456;2023-02-01T04:03:03;1.88;;;0.90;;
16385;SDS011;8302;51.154;4.456;2023-02-01T04:05:31;0.95;;;0.77;;
16385;SDS011;8302;51.154;4.456;2023-02-01T04:08:05;2.00;;;1.00;;
16385;SDS011;8302;51.154;4.456;2023-02-01T04:10:34;1.77;;;1.10;;
16385;SDS011;8302;51.154;4.456;2023-02-01T04:13:01;1.42;;;1.27;;
16385;SDS011;8302;51.154;4.456;2023-02-01T04:15:29;2.78;;;1.10;;
16385;SDS011;8302;51.154;4.456;2023-02-01T04:17:56;4.47;;;1.17;;
16385;SDS011;8302;51.154;4.456;2023-02-01T04:20:24;4.15;;;1.50;;
16385;SDS011;8302;51.154;4.456;2023-02-01T04:22:52;2.22;;;1.73;;
16385;SDS011;8302;51.154;4.456;2023-02-01T04:25:19;2.88;;;1.20;;
16385;SDS011;8302;51.154;4.456;2023-02-01T04:27:50;1.98;;;1.27;;
16385;SDS011;8302;51.154;4.456;2023-02-01T04:30:17;3.75;;;1.73;;
16385;SDS011;8302;51.154;4.456;2023-02-01T04:32:48;1.50;;;0.90;;
16385;SDS011;8302;51.154;4.456;2023-02-01T04:35:18;2.38;;;1.05;;
16385;SDS011;8302;51.154;4.456;2023-02-01T04:37:46;6.63;;;1.50;;
16385;SDS011;8302;51.154;4.456;2023-02-01T04:40:18;1.30;;;1.10;;
16385;SDS011;8302;51.154;4.456;2023-02-01T04:42:46;2.15;;;1.20;;
16385;SDS011;8302;51.154;4.456;2023-02-01T04:45:15;4.32;;;1.27;;
16385;SDS011;8302;51.154;4.456;2023-02-01T04:47:43;2.63;;;1.17;;
16385;SDS011;8302;51.154;4.456;2023-02-01T04:50:12;1.55;;;0.90;;
16385;SDS011;8302;51.154;4.456;2023-02-01T04:52:40;2.28;;;1.10;;
16385;SDS011;8302;51.154;4.456;2023-02-01T04:55:21;1.13;;;0.90;;
16385;SDS011;8302;51.154;4.456;2023-02-01T04:57:49;3.42;;;1.00;;
16385;SDS011;8302;51.154;4.456;2023-02-01T05:00:21;3.70;;;1.52;;
16385;SDS011;8302;51.154;4.456;2023-02-01T05:02:54;2.22;;;1.25;;
16385;SDS011;8302;51.154;4.456;2023-02-01T05:05:24;2.08;;;1.25;;
16385;SDS011;8302;51.154;4.456;2023-02-01T05:07:54;2.38;;;1.17;;
16385;SDS011;8302;51.154;4.456;2023-02-01T05:10:23;5.35;;;1.60;;
16385;SDS011;8302;51.154;4.456;2023-02-01T05:12:51;2.00;;;0.90;;
16385;SDS011;8302;51.154;4.456;2023-02-01T05:15:38;2.83;;;0.98;;
16385;SDS011;8302;51.154;4.456;2023-02-01T05:18:06;4.72;;;1.25;;
16385;SDS011;8302;51.154;4.456;2023-02-01T05:20:33;4.63;;;0.93;;
16385;SDS011;8302;51.154;4.456;2023-02-01T05:23:01;3.03;;;1.27;;
16385;SDS011;8302;51.154;4.456;2023-02-01T05:25:28;2.88;;;0.93;;
16385;SDS011;8302;51.154;4.456;2023-02-01T05:27:56;1.77;;;1.17;;
16385;SDS011;8302;51.154;4.456;2023-02-01T05:30:24;2.03;;;1.08;;
16385;SDS011;8302;51.154;4.456;2023-02-01T05:32:52;0.70;;;0.40;;
16385;SDS011;8302;51.154;4.456;2023-02-01T05:35:20;2.70;;;1.00;;
16385;SDS011;8302;51.154;4.456;2023-02-01T05:37:48;1.92;;;1.17;;
16385;SDS011;8302;51.154;4.456;2023-02-01T05:40:16;3.05;;;1.17;;
16385;SDS011;8302;51.154;4.456;2023-02-01T05:42:51;2.28;;;1.02;;
16385;SDS011;8302;51.154;4.456;2023-02-01T05:45:18;2.70;;;1.20;;
16385;SDS011;8302;51.154;4.456;2023-02-01T05:47:46;2.10;;;1.27;;
16385;SDS011;8302;51.154;4.456;2023-02-01T05:50:15;2.13;;;1.20;;
16385;SDS011;8302;51.154;4.456;2023-02-01T05:52:43;2.60;;;1.23;;
16385;SDS011;8302;51.154;4.456;2023-02-01T05:55:10;1.75;;;1.20;;
16385;SDS011;8302;51.154;4.456;2023-02-01T05:57:38;2.30;;;0.70;;
16385;SDS011;8302;51.154;4.456;2023-02-01T06:00:06;3.78;;;1.00;;
16385;SDS011;8302;51.154;4.456;2023-02-01T06:02:37;3.65;;;1.13;;
16385;SDS011;8302;51.154;4.456;2023-02-01T06:05:05;2.22;;;1.20;;
16385;SDS011;8302;51.154;4.456;2023-02-01T06:07:34;3.50;;;0.93;;
16385;SDS011;8302;51.154;4.456;2023-02-01T06:10:02;3.65;;;1.05;;
16385;SDS011;8302;51.154;4.456;2023-02-01T06:12:30;1.85;;;1.10;;
16385;SDS011;8302;51.154;4.456;2023-02-01T06:14:58;3.78;;;1.30;;
16385;SDS011;8302;51.154;4.456;2023-02-01T06:17:26;2.28;;;1.15;;
16385;SDS011;8302;51.154;4.456;2023-02-01T06:19:53;1.90;;;1.10;;
16385;SDS011;8302;51.154;4.456;2023-02-01T06:22:21;2.33;;;1.10;;
16385;SDS011;8302;51.154;4.456;2023-02-01T06:24:50;2.25;;;1.20;;
16385;SDS011;8302;51.154;4.456;2023-02-01T06:27:17;4.53;;;1.15;;
16385;SDS011;8302;51.154;4.456;2023-02-01T06:29:45;1.85;;;1.10;;
16385;SDS011;8302;51.154;4.456;2023-02-01T06:32:13;2.35;;;0.80;;
16385;SDS011;8302;51.154;4.456;2023-02-01T06:34:40;5.18;;;1.40;;
16385;SDS011;8302;51.154;4.456;2023-02-01T06:37:08;1.65;;;0.90;;
16385;SDS011;8302;51.154;4.456;2023-02-01T06:39:37;3.50;;;1.30;;
16385;SDS011;8302;51.154;4.456;2023-02-01T06:42:06;2.95;;;0.90;;
16385;SDS011;8302;51.154;4.456;2023-02-01T06:44:33;2.13;;;1.10;;
16385;SDS011;8302;51.154;4.456;2023-02-01T06:47:02;2.05;;;1.13;;
16385;SDS011;8302;51.154;4.456;2023-02-01T06:49:33;4.15;;;1.40;;
16385;SDS011;8302;51.154;4.456;2023-02-01T06:52:00;5.57;;;1.55;;
16385;SDS011;8302;51.154;4.456;2023-02-01T06:54:28;3.10;;;1.33;;
16385;SDS011;8302;51.154;4.456;2023-02-01T06:56:58;2.13;;;1.25;;
16385;SDS011;8302;51.154;4.456;2023-02-01T06:59:27;2.70;;;0.95;;
16385;SDS011;8302;51.154;4.456;2023-02-01T07:01:55;4.13;;;1.65;;
16385;SDS011;8302;51.154;4.456;2023-02-01T07:04:22;2.88;;;0.90;;
16385;SDS011;8302;51.154;4.456;2023-02-01T07:06:50;3.60;;;1.60;;
16385;SDS011;8302;51.154;4.456;2023-02-01T07:09:18;1.40;;;0.82;;
16385;SDS011;8302;51.154;4.456;2023-02-01T07:11:45;2.17;;;1.27;;
16385;SDS011;8302;51.154;4.456;2023-02-01T07:14:13;4.82;;;1.42;;
16385;SDS011;8302;51.154;4.456;2023-02-01T07:16:42;4.30;;;1.25;;
16385;SDS011;8302;51.154;4.456;2023-02-01T07:19:09;3.03;;;0.98;;
16385;SDS011;8302;51.154;4.456;2023-02-01T07:21:37;4.60;;;0.95;;
16385;SDS011;8302;51.154;4.456;2023-02-01T07:24:05;1.55;;;0.98;;
16385;SDS011;8302;51.154;4.456;2023-02-01T07:26:32;2.53;;;1.05;;
16385;SDS011;8302;51.154;4.456;2023-02-01T07:29:00;2.83;;;0.65;;
16385;SDS011;8302;51.154;4.456;2023-02-01T07:31:27;5.63;;;1.15;;
16385;SDS011;8302;51.154;4.456;2023-02-01T07:33:57;12.20;;;1.35;;
16385;SDS011;8302;51.154;4.456;2023-02-01T07:36:24;2.08;;;0.95;;
16385;SDS011;8302;51.154;4.456;2023-02-01T07:38:52;3.17;;;1.33;;
16385;SDS011;8302;51.154;4.456;2023-02-01T07:41:22;4.32;;;1.10;;
16385;SDS011;8302;51.154;4.456;2023-02-01T07:43:51;2.72;;;0.95;;
16385;SDS011;8302;51.154;4.456;2023-02-01T07:46:19;5.30;;;1.52;;
16385;SDS011;8302;51.154;4.456;2023-02-01T07:48:47;3.38;;;0.98;;
16385;SDS011;8302;51.154;4.456;2023-02-01T07:51:16;2.22;;;1.02;;
16385;SDS011;8302;51.154;4.456;2023-02-01T07:53:44;2.00;;;0.95;;
16385;SDS011;8302;51.154;4.456;2023-02-01T07:56:12;2.40;;;0.95;;
16385;SDS011;8302;51.154;4.456;2023-02-01T07:58:40;1.08;;;0.90;;
16385;SDS011;8302;51.154;4.456;2023-02-01T08:01:13;3.00;;;1.30;;
16385;SDS011;8302;51.154;4.456;2023-02-01T08:03:51;5.10;;;1.52;;
16385;SDS011;8302;51.154;4.456;2023-02-01T08:06:20;3.13;;;1.33;;
16385;SDS011;8302;51.154;4.456;2023-02-01T08:08:48;4.63;;;1.50;;
16385;SDS011;8302;51.154;4.456;2023-02-01T08:11:16;3.85;;;1.52;;
16385;SDS011;8302;51.154;4.456;2023-02-01T08:13:44;7.25;;;1.42;;
16385;SDS011;8302;51.154;4.456;2023-02-01T08:16:12;3.03;;;1.45;;
16385;SDS011;8302;51.154;4.456;2023-02-01T08:18:40;4.25;;;1.83;;
16385;SDS011;8302;51.154;4.456;2023-02-01T08:21:08;2.58;;;1.35;;
16385;SDS011;8302;51.154;4.456;2023-02-01T08:23:38;4.47;;;2.00;;
16385;SDS011;8302;51.154;4.456;2023-02-01T08:26:07;3.50;;;1.80;;
16385;SDS011;8302;51.154;4.456;2023-02-01T08:28:34;3.72;;;2.15;;
16385;SDS011;8302;51.154;4.456;2023-02-01T08:31:04;2.03;;;1.30;;
16385;SDS011;8302;51.154;4.456;2023-02-01T08:33:31;6.30;;;1.92;;
16385;SDS011;8302;51.154;4.456;2023-02-01T08:36:00;3.78;;;1.98;;
16385;SDS011;8302;51.154;4.456;2023-02-01T08:38:28;3.20;;;1.77;;
16385;SDS011;8302;51.154;4.456;2023-02-01T08:40:57;5.43;;;1.70;;
16385;SDS011;8302;51.154;4.456;2023-02-01T08:43:24;5.93;;;1.83;;
16385;SDS011;8302;51.154;4.456;2023-02-01T08:45:53;5.32;;;2.55;;
16385;SDS011;8302;51.154;4.456;2023-02-01T08:48:22;8.73;;;2.25;;
16385;SDS011;8302;51.154;4.456;2023-02-01T08:50:50;5.93;;;1.75;;
16385;SDS011;8302;51.154;4.456;2023-02-01T08:53:17;6.20;;;2.28;;
16385;SDS011;8302;51.154;4.456;2023-02-01T08:55:45;7.63;;;2.35;;
16385;SDS011;8302;51.154;4.456;2023-02-01T08:58:14;4.88;;;2.13;;
16385;SDS011;8302;51.154;4.456;2023-02-01T09:00:43;6.68;;;2.47;;
16385;SDS011;8302;51.154;4.456;2023-02-01T09:03:11;7.38;;;2.67;;
16385;SDS011;8302;51.154;4.456;2023-02-01T09:05:39;8.93;;;2.60;;
16385;SDS011;8302;51.154;4.456;2023-02-01T09:08:15;7.53;;;3.05;;
16385;SDS011;8302;51.154;4.456;2023-02-01T09:10:42;7.88;;;2.30;;
16385;SDS011;8302;51.154;4.456;2023-02-01T09:13:10;8.90;;;2.92;;
16385;SDS011;8302;51.154;4.456;2023-02-01T09:15:39;9.73;;;3.00;;
16385;SDS011;8302;51.154;4.456;2023-02-01T09:18:07;11.57;;;3.03;;
16385;SDS011;8302;51.154;4.456;2023-02-01T09:20:34;8.48;;;3.05;;
16385;SDS011;8302;51.154;4.456;2023-02-01T09:23:03;4.95;;;2.88;;
16385;SDS011;8302;51.154;4.456;2023-02-01T09:25:33;9.60;;;3.38;;
16385;SDS011;8302;51.154;4.456;2023-02-01T09:28:00;6.10;;;3.10;;
16385;SDS011;8302;51.154;4.456;2023-02-01T09:30:30;9.68;;;4.00;;
16385;SDS011;8302;51.154;4.456;2023-02-01T09:32:59;11.60;;;3.83;;
16385;SDS011;8302;51.154;4.456;2023-02-01T09:35:26;9.85;;;3.83;;
16385;SDS011;8302;51.154;4.456;2023-02-01T09:37:54;13.00;;;4.30;;
16385;SDS011;8302;51.154;4.456;2023-02-01T09:40:22;11.55;;;3.67;;
16385;SDS011;8302;51.154;4.456;2023-02-01T09:45:41;9.65;;;3.80;;
16385;SDS011;8302;51.154;4.456;2023-02-01T09:48:13;11.82;;;4.20;;
16385;SDS011;8302;51.154;4.456;2023-02-01T09:50:41;10.07;;;3.72;;
16385;SDS011;8302;51.154;4.456;2023-02-01T09:53:12;10.35;;;4.03;;
16385;SDS011;8302;51.154;4.456;2023-02-01T09:55:41;8.13;;;3.40;;
16385;SDS011;8302;51.154;4.456;2023-02-01T09:58:12;9.38;;;3.35;;
16385;SDS011;8302;51.154;4.456;2023-02-01T10:00:42;12.13;;;3.83;;
16385;SDS011;8302;51.154;4.456;2023-02-01T10:03:12;13.13;;;3.35;;
16385;SDS011;8302;51.154;4.456;2023-02-01T10:05:46;8.18;;;3.40;;
16385;SDS011;8302;51.154;4.456;2023-02-01T10:08:19;10.52;;;3.72;;
16385;SDS011;8302;51.154;4.456;2023-02-01T10:10:52;12.73;;;3.38;;
16385;SDS011;8302;51.154;4.456;2023-02-01T10:13:30;8.13;;;3.20;;
16385;SDS011;8302;51.154;4.456;2023-02-01T10:16:02;6.22;;;3.25;;
16385;SDS011;8302;51.154;4.456;2023-02-01T10:18:37;9.52;;;3.05;;
16385;SDS011;8302;51.154;4.456;2023-02-01T10:21:09;11.10;;;3.47;;
16385;SDS011;8302;51.154;4.456;2023-02-01T10:23:43;8.43;;;3.10;;
16385;SDS011;8302;51.154;4.456;2023-02-01T10:26:17;6.80;;;3.28;;
16385;SDS011;8302;51.154;4.456;2023-02-01T10:28:46;8.80;;;2.83;;
16385;SDS011;8302;51.154;4.456;2023-02-01T10:31:15;6.88;;;2.88;;
16385;SDS011;8302;51.154;4.456;2023-02-01T10:33:45;6.05;;;3.00;;
16385;SDS011;8302;51.154;4.456;2023-02-01T10:36:15;9.00;;;3.03;;
16385;SDS011;8302;51.154;4.456;2023-02-01T10:38:44;6.03;;;2.83;;
16385;SDS011;8302;51.154;4.456;2023-02-01T10:41:12;9.85;;;3.28;;
16385;SDS011;8302;51.154;4.456;2023-02-01T10:43:41;8.05;;;3.15;;
16385;SDS011;8302;51.154;4.456;2023-02-01T10:46:09;8.30;;;3.15;;
16385;SDS011;8302;51.154;4.456;2023-02-01T10:48:37;8.70;;;3.22;;
16385;SDS011;8302;51.154;4.456;2023-02-01T10:51:10;6.13;;;2.75;;
16385;SDS011;8302;51.154;4.456;2023-02-01T10:53:41;8.73;;;3.17;;
16385;SDS011;8302;51.154;4.456;2023-02-01T10:56:10;7.07;;;2.42;;
16385;SDS011;8302;51.154;4.456;2023-02-01T10:58:42;7.20;;;2.63;;
16385;SDS011;8302;51.154;4.456;2023-02-01T11:01:15;6.25;;;2.88;;
16385;SDS011;8302;51.154;4.456;2023-02-01T11:03:44;5.93;;;2.42;;
16385;SDS011;8302;51.154;4.456;2023-02-01T11:06:16;4.57;;;1.55;;
16385;SDS011;8302;51.154;4.456;2023-02-01T11:08:46;2.95;;;1.20;;
16385;SDS011;8302;51.154;4.456;2023-02-01T11:11:14;6.15;;;1.70;;
16385;SDS011;8302;51.154;4.456;2023-02-01T11:13:44;2.70;;;1.73;;
16385;SDS011;8302;51.154;4.456;2023-02-01T11:16:18;6.88;;;1.52;;
16385;SDS011;8302;51.154;4.456;2023-02-01T11:18:46;4.70;;;1.98;;
16385;SDS011;8302;51.154;4.456;2023-02-01T11:21:21;4.18;;;1.67;;
16385;SDS011;8302;51.154;4.456;2023-02-01T11:23:49;2.80;;;1.42;;
16385;SDS011;8302;51.154;4.456;2023-02-01T11:26:20;2.85;;;1.63;;
16385;SDS011;8302;51.154;4.456;2023-02-01T11:28:53;5.45;;;1.45;;
16385;SDS011;8302;51.154;4.456;2023-02-01T11:31:21;3.22;;;1.25;;
16385;SDS011;8302;51.154;4.456;2023-02-01T11:33:50;3.25;;;1.27;;
16385;SDS011;8302;51.154;4.456;2023-02-01T11:36:22;1.35;;;0.70;;
16385;SDS011;8302;51.154;4.456;2023-02-01T11:38:53;6.70;;;1.27;;
16385;SDS011;8302;51.154;4.456;2023-02-01T11:41:23;2.47;;;1.13;;
16385;SDS011;8302;51.154;4.456;2023-02-01T11:43:52;5.28;;;1.45;;
16385;SDS011;8302;51.154;4.456;2023-02-01T11:46:22;3.97;;;1.38;;
16385;SDS011;8302;51.154;4.456;2023-02-01T11:48:52;3.78;;;1.58;;
16385;SDS011;8302;51.154;4.456;2023-02-01T11:51:27;3.20;;;1.70;;
16385;SDS011;8302;51.154;4.456;2023-02-01T11:54:02;4.40;;;1.50;;
16385;SDS011;8302;51.154;4.456;2023-02-01T11:56:35;3.03;;;1.15;;
16385;SDS011;8302;51.154;4.456;2023-02-01T11:59:16;2.90;;;1.25;;
16385;SDS011;8302;51.154;4.456;2023-02-01T12:01:52;4.60;;;1.23;;
16385;SDS011;8302;51.154;4.456;2023-02-01T12:07:09;2.90;;;1.17;;
16385;SDS011;8302;51.154;4.456;2023-02-01T12:09:42;2.95;;;1.77;;
16385;SDS011;8302;51.154;4.456;2023-02-01T12:12:13;4.32;;;1.60;;
16385;SDS011;8302;51.154;4.456;2023-02-01T12:14:47;2.00;;;1.13;;
16385;SDS011;8302;51.154;4.456;2023-02-01T12:17:32;1.85;;;0.93;;
16385;SDS011;8302;51.154;4.456;2023-02-01T12:20:10;3.83;;;1.35;;
16385;SDS011;8302;51.154;4.456;2023-02-01T12:22:48;3.90;;;1.50;;
16385;SDS011;8302;51.154;4.456;2023-02-01T12:25:25;3.90;;;1.63;;
16385;SDS011;8302;51.154;4.456;2023-02-01T12:27:59;4.47;;;1.30;;
16385;SDS011;8302;51.154;4.456;2023-02-01T12:30:41;2.92;;;1.00;;
16385;SDS011;8302;51.154;4.456;2023-02-01T12:33:14;1.83;;;1.20;;
16385;SDS011;8302;51.154;4.456;2023-02-01T12:35:48;1.77;;;0.73;;
16385;SDS011;8302;51.154;4.456;2023-02-01T12:38:28;3.70;;;1.48;;
16385;SDS011;8302;51.154;4.456;2023-02-01T12:41:03;3.83;;;1.27;;
16385;SDS011;8302;51.154;4.456;2023-02-01T12:43:36;2.55;;;1.15;;
16385;SDS011;8302;51.154;4.456;2023-02-01T12:46:07;2.53;;;0.93;;
16385;SDS011;8302;51.154;4.456;2023-02-01T12:48:36;2.20;;;1.17;;
16385;SDS011;8302;51.154;4.456;2023-02-01T12:51:09;1.75;;;1.10;;
16385;SDS011;8302;51.154;4.456;2023-02-01T12:53:44;4.05;;;1.27;;
16385;SDS011;8302;51.154;4.456;2023-02-01T12:56:14;5.78;;;1.38;;
16385;SDS011;8302;51.154;4.456;2023-02-01T12:58:44;3.17;;;1.55;;
16385;SDS011;8302;51.154;4.456;2023-02-01T13:01:15;4.72;;;1.30;;
16385;SDS011;8302;51.154;4.456;2023-02-01T13:03:44;3.55;;;1.27;;
16385;SDS011;8302;51.154;4.456;2023-02-01T13:06:18;3.25;;;1.40;;
16385;SDS011;8302;51.154;4.456;2023-02-01T13:08:49;3.20;;;1.30;;
16385;SDS011;8302;51.154;4.456;2023-02-01T13:11:19;5.40;;;1.08;;
16385;SDS011;8302;51.154;4.456;2023-02-01T13:13:52;1.92;;;1.08;;
16385;SDS011;8302;51.154;4.456;2023-02-01T13:16:23;3.63;;;1.48;;
16385;SDS011;8302;51.154;4.456;2023-02-01T13:18:53;2.75;;;1.02;;
16385;SDS011;8302;51.154;4.456;2023-02-01T13:21:24;2.53;;;1.10;;
16385;SDS011;8302;51.154;4.456;2023-02-01T13:23:53;3.40;;;1.10;;
16385;SDS011;8302;51.154;4.456;2023-02-01T13:26:21;1.23;;;0.90;;
16385;SDS011;8302;51.154;4.456;2023-02-01T13:28:49;2.60;;;1.23;;
16385;SDS011;8302;51.154;4.456;2023-02-01T13:31:23;3.10;;;1.30;;
16385;SDS011;8302;51.154;4.456;2023-02-01T13:34:24;2.58;;;0.93;;
16385;SDS011;8302;51.154;4.456;2023-02-01T13:36:59;2.70;;;1.23;;
16385;SDS011;8302;51.154;4.456;2023-02-01T13:39:41;2.45;;;1.33;;
16385;SDS011;8302;51.154;4.456;2023-02-01T13:42:15;3.75;;;1.02;;
16385;SDS011;8302;51.154;4.456;2023-02-01T13:44:43;2.72;;;1.20;;
16385;SDS011;8302;51.154;4.456;2023-02-01T13:47:13;4.75;;;1.23;;
16385;SDS011;8302;51.154;4.456;2023-02-01T13:49:44;3.90;;;1.10;;
16385;SDS011;8302;51.154;4.456;2023-02-01T13:52:22;1.60;;;0.98;;
16385;SDS011;8302;51.154;4.456;2023-02-01T13:55:01;2.80;;;1.10;;
16385;SDS011;8302;51.154;4.456;2023-02-01T13:57:34;2.13;;;1.02;;
16385;SDS011;8302;51.154;4.456;2023-02-01T14:00:07;2.30;;;1.10;;
16385;SDS011;8302;51.154;4.456;2023-02-01T14:08:10;1.75;;;1.23;;
16385;SDS011;8302;51.154;4.456;2023-02-01T14:10:50;3.75;;;1.42;;
16385;SDS011;8302;51.154;4.456;2023-02-01T14:13:24;2.20;;;0.88;;
16385;SDS011;8302;51.154;4.456;2023-02-01T14:16:11;3.30;;;1.35;;
16385;SDS011;8302;51.154;4.456;2023-02-01T14:18:49;6.28;;;1.30;;
16385;SDS011;8302;51.154;4.456;2023-02-01T14:21:24;2.78;;;1.42;;
16385;SDS011;8302;51.154;4.456;2023-02-01T14:23:57;2.65;;;1.23;;
16385;SDS011;8302;51.154;4.456;2023-02-01T14:26:27;3.42;;;1.33;;
16385;SDS011;8302;51.154;4.456;2023-02-01T14:29:18;3.92;;;1.23;;
16385;SDS011;8302;51.154;4.456;2023-02-01T14:31:52;4.38;;;1.23;;
16385;SDS011;8302;51.154;4.456;2023-02-01T14:34:29;2.67;;;1.17;;
16385;SDS011;8302;51.154;4.456;2023-02-01T14:36:58;3.13;;;1.20;;
16385;SDS011;8302;51.154;4.456;2023-02-01T14:39:28;3.35;;;1.27;;
16385;SDS011;8302;51.154;4.456;2023-02-01T14:41:58;3.53;;;1.20;;
16385;SDS011;8302;51.154;4.456;2023-02-01T14:44:29;3.55;;;1.20;;
16385;SDS011;8302;51.154;4.456;2023-02-01T14:47:08;2.25;;;0.90;;
16385;SDS011;8302;51.154;4.456;2023-02-01T14:49:37;2.28;;;1.17;;
16385;SDS011;8302;51.154;4.456;2023-02-01T14:52:06;1.73;;;0.82;;
16385;SDS011;8302;51.154;4.456;2023-02-01T14:54:37;2.97;;;1.10;;
16385;SDS011;8302;51.154;4.456;2023-02-01T14:57:11;1.80;;;1.20;;
16385;SDS011;8302;51.154;4.456;2023-02-01T14:59:41;3.63;;;1.40;;
16385;SDS011;8302;51.154;4.456;2023-02-01T15:02:18;2.40;;;1.30;;
16385;SDS011;8302;51.154;4.456;2023-02-01T15:04:47;3.92;;;1.17;;
16385;SDS011;8302;51.154;4.456;2023-02-01T15:07:20;3.03;;;1.08;;
16385;SDS011;8302;51.154;4.456;2023-02-01T15:09:48;2.55;;;1.10;;
16385;SDS011;8302;51.154;4.456;2023-02-01T15:12:18;2.90;;;1.33;;
16385;SDS011;8302;51.154;4.456;2023-02-01T15:15:02;2.67;;;1.15;;
16385;SDS011;8302;51.154;4.456;2023-02-01T15:17:31;4.20;;;1.10;;
16385;SDS011;8302;51.154;4.456;2023-02-01T15:20:02;3.22;;;1.10;;
16385;SDS011;8302;51.154;4.456;2023-02-01T15:22:34;1.85;;;1.00;;
16385;SDS011;8302;51.154;4.456;2023-02-01T15:25:02;3.35;;;1.17;;
16385;SDS011;8302;51.154;4.456;2023-02-01T15:27:31;6.53;;;1.50;;
16385;SDS011;8302;51.154;4.456;2023-02-01T15:30:04;4.22;;;1.40;;
16385;SDS011;8302;51.154;4.456;2023-02-01T15:32:33;2.50;;;1.10;;
16385;SDS011;8302;51.154;4.456;2023-02-01T15:35:01;2.30;;;1.17;;
16385;SDS011;8302;51.154;4.456;2023-02-01T15:37:29;3.42;;;1.45;;
16385;SDS011;8302;51.154;4.456;2023-02-01T15:40:04;2.70;;;1.33;;
16385;SDS011;8302;51.154;4.456;2023-02-01T15:42:35;7.70;;;1.58;;
16385;SDS011;8302;51.154;4.456;2023-02-01T15:45:03;4.47;;;1.50;;